sensor_id;sensor_type;location;lat;lon;timestamp;pressure;altitude;pressure_sealevel;temperature;humidity
3260;BME280;22469;48.150;14.004;2022-12-05T08:24:06;98251.59;;;3.43;100.00
3260;BME280;22469;48.150;14.004;2022-12-05T08:26:35;98255.66;;;4.40;100.00
3260;BME280;22469;48.150;14.004;2022-12-05T08:29:08;98256.00;;;5.36;99.40
3260;BME280;22469;48.150;14.004;2022-12-05T08:31:45;98259.69;;;6.07;93.79
3260;BME280;22469;48.150;14.004;2022-12-05T08:34:16;98268.97;;;6.13;88.29
3260;BME280;22469;48.150;14.004;2022-12-05T08:36:45;98267.69;;;6.54;86.77
3260;BME280;22469;48.150;14.004;2022-12-05T08:39:16;98269.19;;;6.69;84.36
3260;BME280;22469;48.150;14.004;2022-12-05T08:41:45;98260.72;;;6.67;82.70
3260;BME280;22469;48.150;14.004;2022-12-05T08:44:13;98257.91;;;6.88;81.38
3260;BME280;22469;48.150;14.004;2022-12-05T08:46:44;98258.44;;;7.11;80.53
3260;BME280;22469;48.150;14.004;2022-12-05T08:49:13;98248.09;;;7.22;79.54
3260;BME280;22469;48.150;14.004;2022-12-05T08:51:41;98243.69;;;7.32;78.68
3260;BME280;22469;48.150;14.004;2022-12-05T08:54:09;98242.03;;;7.28;78.62
3260;BME280;22469;48.150;14.004;2022-12-05T08:56:37;98239.50;;;7.26;77.98
3260;BME280;22469;48.150;14.004;2022-12-05T08:59:05;98247.84;;;7.38;78.05
3260;BME280;22469;48.150;14.004;2022-12-05T09:01:33;98255.78;;;7.19;77.82
3260;BME280;22469;48.150;14.004;2022-12-05T09:04:05;98247.91;;;7.33;77.40
3260;BME280;22469;48.150;14.004;2022-12-05T09:06:33;98258.78;;;7.44;76.63
3260;BME280;22469;48.150;14.004;2022-12-05T09:09:05;98271.47;;;7.50;76.72
3260;BME280;22469;48.150;14.004;2022-12-05T09:11:37;98266.94;;;7.68;76.70
3260;BME280;22469;48.150;14.004;2022-12-05T09:14:06;98274.63;;;7.66;75.54
3260;BME280;22469;48.150;14.004;2022-12-05T09:16:36;98275.44;;;7.70;76.08
3260;BME280;22469;48.150;14.004;2022-12-05T09:19:10;98274.47;;;7.77;75.66
3260;BME280;22469;48.150;14.004;2022-12-05T09:21:41;98282.56;;;7.49;75.34
3260;BME280;22469;48.150;14.004;2022-12-05T09:24:11;98268.97;;;7.47;76.36
3260;BME280;22469;48.150;14.004;2022-12-05T09:26:40;98269.44;;;7.71;75.99
3260;BME280;22469;48.150;14.004;2022-12-05T09:29:08;98262.56;;;7.74;74.94
3260;BME280;22469;48.150;14.004;2022-12-05T09:31:42;98268.75;;;7.61;75.21
3260;BME280;22469;48.150;14.004;2022-12-05T09:34:11;98266.53;;;7.38;75.77
3260;BME280;22469;48.150;14.004;2022-12-05T09:36:41;98253.66;;;7.47;75.27
3260;BME280;22469;48.150;14.004;2022-12-05T09:39:09;98269.31;;;7.23;76.44
3260;BME280;22469;48.150;14.004;2022-12-05T09:48:05;98269.78;;;7.49;75.72
3260;BME280;22469;48.150;14.004;2022-12-05T09:50:57;98259.47;;;7.57;75.64
3260;BME280;22469;48.150;14.004;2022-12-05T09:58:52;98263.38;;;7.78;73.63
3260;BME280;22469;48.150;14.004;2022-12-05T10:06:49;98283.50;;;6.79;76.30
3260;BME280;22469;48.150;14.004;2022-12-05T10:18:00;98268.56;;;7.73;73.16
3260;BME280;22469;48.150;14.004;2022-12-05T10:20:47;98264.19;;;7.80;72.38
3260;BME280;22469;48.150;14.004;2022-12-05T10:23:22;98261.38;;;7.95;71.76
3260;BME280;22469;48.150;14.004;2022-12-05T10:26:13;98267.13;;;8.06;71.41
3260;BME280;22469;48.150;14.004;2022-12-05T10:28:55;98256.91;;;8.06;71.15
3260;BME280;22469;48.150;14.004;2022-12-05T10:31:37;98253.19;;;7.76;71.72
3260;BME280;22469;48.150;14.004;2022-12-05T10:34:14;98250.25;;;7.98;71.95
3260;BME280;22469;48.150;14.004;2022-12-05T10:36:54;98246.09;;;7.92;71.85
3260;BME280;22469;48.150;14.004;2022-12-05T10:39:36;98245.41;;;7.82;71.66
3260;BME280;22469;48.150;14.004;2022-12-05T10:42:05;98232.88;;;7.70;72.02
3260;BME280;22469;48.150;14.004;2022-12-05T10:44:40;98234.94;;;7.96;71.95
3260;BME280;22469;48.150;14.004;2022-12-05T10:47:07;98240.16;;;7.92;71.66
3260;BME280;22469;48.150;14.004;2022-12-05T10:49:36;98235.13;;;7.87;71.67
3260;BME280;22469;48.150;14.004;2022-12-05T10:52:04;98235.81;;;7.97;71.46
3260;BME280;22469;48.150;14.004;2022-12-05T10:54:39;98241.72;;;8.00;71.47
3260;BME280;22469;48.150;14.004;2022-12-05T10:57:25;98246.72;;;8.05;71.25
3260;BME280;22469;48.150;14.004;2022-12-05T10:59:53;98255.38;;;7.98;71.46
3260;BME280;22469;48.150;14.004;2022-12-05T11:04:55;98244.75;;;7.73;71.49
3260;BME280;22469;48.150;14.004;2022-12-05T11:10:21;98245.94;;;8.01;70.83
3260;BME280;22469;48.150;14.004;2022-12-05T11:12:57;98246.69;;;8.06;70.52
3260;BME280;22469;48.150;14.004;2022-12-05T11:15:27;98256.06;;;8.07;70.42
3260;BME280;22469;48.150;14.004;2022-12-05T11:18:00;98259.41;;;8.11;70.32
3260;BME280;22469;48.150;14.004;2022-12-05T11:20:44;98254.28;;;8.11;70.07
3260;BME280;22469;48.150;14.004;2022-12-05T11:23:24;98251.78;;;8.06;70.10
3260;BME280;22469;48.150;14.004;2022-12-05T11:25:55;98250.22;;;7.99;70.04
3260;BME280;22469;48.150;14.004;2022-12-05T11:28:46;98249.38;;;7.99;70.44
3260;BME280;22469;48.150;14.004;2022-12-05T11:33:40;98243.00;;;7.75;70.86
3260;BME280;22469;48.150;14.004;2022-12-05T11:36:17;98233.50;;;7.81;71.22
3260;BME280;22469;48.150;14.004;2022-12-05T11:38:46;98240.81;;;7.52;72.11
3260;BME280;22469;48.150;14.004;2022-12-05T11:41:32;98243.56;;;7.40;72.47
3260;BME280;22469;48.150;14.004;2022-12-05T11:55:42;98251.94;;;7.48;72.32
3260;BME280;22469;48.150;14.004;2022-12-05T12:13:43;98251.72;;;7.63;70.56
3260;BME280;22469;48.150;14.004;2022-12-05T12:16:27;98245.63;;;7.70;70.31
3260;BME280;22469;48.150;14.004;2022-12-05T12:25:12;98250.00;;;7.62;70.08
3260;BME280;22469;48.150;14.004;2022-12-05T12:36:37;98229.34;;;7.23;70.06
3260;BME280;22469;48.150;14.004;2022-12-05T12:42:21;98234.88;;;7.51;69.34
3260;BME280;22469;48.150;14.004;2022-12-05T12:50:27;98221.19;;;7.55;68.76
3260;BME280;22469;48.150;14.004;2022-12-05T12:59:07;98222.63;;;7.18;70.12
3260;BME280;22469;48.150;14.004;2022-12-05T13:05:28;98224.06;;;6.75;72.05
3260;BME280;22469;48.150;14.004;2022-12-05T13:10:40;98237.28;;;7.03;70.99
3260;BME280;22469;48.150;14.004;2022-12-05T13:13:15;98235.28;;;7.25;70.35
3260;BME280;22469;48.150;14.004;2022-12-05T13:15:50;98233.41;;;7.36;70.19
3260;BME280;22469;48.150;14.004;2022-12-05T13:18:23;98232.44;;;7.44;70.00
3260;BME280;22469;48.150;14.004;2022-12-05T13:21:01;98241.91;;;7.37;69.99
3260;BME280;22469;48.150;14.004;2022-12-05T13:23:44;98237.44;;;7.50;69.44
3260;BME280;22469;48.150;14.004;2022-12-05T13:26:14;98238.16;;;7.58;69.33
3260;BME280;22469;48.150;14.004;2022-12-05T13:28:48;98237.22;;;7.64;68.96
3260;BME280;22469;48.150;14.004;2022-12-05T13:37:10;98239.81;;;7.60;68.50
3260;BME280;22469;48.150;14.004;2022-12-05T13:40:03;98241.78;;;7.45;69.77
3260;BME280;22469;48.150;14.004;2022-12-05T13:43:02;98245.81;;;7.59;69.00
3260;BME280;22469;48.150;14.004;2022-12-05T13:45:30;98241.16;;;7.30;70.67
3260;BME280;22469;48.150;14.004;2022-12-05T13:50:46;98236.66;;;7.45;70.34
3260;BME280;22469;48.150;14.004;2022-12-05T13:56:25;98246.19;;;7.86;69.30
3260;BME280;22469;48.150;14.004;2022-12-05T13:58:57;98250.28;;;7.96;68.79
3260;BME280;22469;48.150;14.004;2022-12-05T14:03:55;98250.28;;;7.96;68.71
3260;BME280;22469;48.150;14.004;2022-12-05T14:17:45;98256.31;;;7.94;69.39
3260;BME280;22469;48.150;14.004;2022-12-05T14:32:23;98238.47;;;7.91;69.37
3260;BME280;22469;48.150;14.004;2022-12-05T14:35:10;98236.66;;;7.97;69.46
3260;BME280;22469;48.150;14.004;2022-12-05T14:37:40;98238.38;;;7.95;69.57
3260;BME280;22469;48.150;14.004;2022-12-05T14:43:27;98234.34;;;7.82;69.87
3260;BME280;22469;48.150;14.004;2022-12-05T14:45:59;98226.69;;;7.82;70.07
3260;BME280;22469;48.150;14.004;2022-12-05T14:48:32;98229.97;;;7.89;69.85
3260;BME280;22469;48.150;14.004;2022-12-05T14:54:13;98224.88;;;7.90;70.15
3260;BME280;22469;48.150;14.004;2022-12-05T14:56:45;98219.72;;;7.93;70.15
3260;BME280;22469;48.150;14.004;2022-12-05T14:59:33;98222.13;;;7.99;69.79
3260;BME280;22469;48.150;14.004;2022-12-05T15:02:24;98231.56;;;7.96;69.77
3260;BME280;22469;48.150;14.004;2022-12-05T15:07:59;98235.78;;;7.98;69.80
3260;BME280;22469;48.150;14.004;2022-12-05T15:10:32;98230.88;;;7.86;70.23
3260;BME280;22469;48.150;14.004;2022-12-05T15:13:03;98225.81;;;7.84;70.24
3260;BME280;22469;48.150;14.004;2022-12-05T15:15:51;98231.59;;;7.93;69.75
3260;BME280;22469;48.150;14.004;2022-12-05T15:18:27;98235.81;;;7.95;69.92
3260;BME280;22469;48.150;14.004;2022-12-05T15:21:17;98234.06;;;7.99;69.92
3260;BME280;22469;48.150;14.004;2022-12-05T15:23:55;98237.59;;;7.93;70.24
3260;BME280;22469;48.150;14.004;2022-12-05T15:32:36;98239.50;;;7.79;70.86
3260;BME280;22469;48.150;14.004;2022-12-05T15:35:05;98231.69;;;7.88;70.90
3260;BME280;22469;48.150;14.004;2022-12-05T15:37:57;98232.63;;;7.84;71.50
3260;BME280;22469;48.150;14.004;2022-12-05T15:40:34;98234.50;;;7.74;71.25
3260;BME280;22469;48.150;14.004;2022-12-05T15:48:51;98242.09;;;7.77;71.31
3260;BME280;22469;48.150;14.004;2022-12-05T15:51:35;98239.59;;;7.74;71.62
3260;BME280;22469;48.150;14.004;2022-12-05T15:54:10;98249.91;;;7.70;72.52
3260;BME280;22469;48.150;14.004;2022-12-05T15:56:49;98245.63;;;7.69;72.43
3260;BME280;22469;48.150;14.004;2022-12-05T15:59:39;98234.53;;;7.73;72.34
3260;BME280;22469;48.150;14.004;2022-12-05T16:02:15;98224.31;;;7.73;72.26
3260;BME280;22469;48.150;14.004;2022-12-05T16:04:48;98229.44;;;7.73;72.50
3260;BME280;22469;48.150;14.004;2022-12-05T16:07:18;98231.91;;;7.76;72.55
3260;BME280;22469;48.150;14.004;2022-12-05T16:09:46;98234.44;;;7.77;72.31
3260;BME280;22469;48.150;14.004;2022-12-05T16:12:37;98243.78;;;7.78;72.70
3260;BME280;22469;48.150;14.004;2022-12-05T16:15:19;98240.38;;;7.79;72.64
3260;BME280;22469;48.150;14.004;2022-12-05T16:17:54;98256.59;;;7.77;72.59
3260;BME280;22469;48.150;14.004;2022-12-05T16:20:30;98243.81;;;7.77;72.68
3260;BME280;22469;48.150;14.004;2022-12-05T16:23:22;98250.56;;;7.81;72.33
3260;BME280;22469;48.150;14.004;2022-12-05T16:28:38;98245.53;;;7.76;72.54
3260;BME280;22469;48.150;14.004;2022-12-05T16:31:05;98249.72;;;7.80;72.57
3260;BME280;22469;48.150;14.004;2022-12-05T16:33:33;98259.84;;;7.85;72.70
3260;BME280;22469;48.150;14.004;2022-12-05T16:36:11;98261.50;;;7.86;72.64
3260;BME280;22469;48.150;14.004;2022-12-05T16:38:39;98253.84;;;7.88;72.58
3260;BME280;22469;48.150;14.004;2022-12-05T16:41:13;98267.34;;;7.94;72.50
3260;BME280;22469;48.150;14.004;2022-12-05T16:43:44;98266.56;;;7.91;72.26
3260;BME280;22469;48.150;14.004;2022-12-05T16:48:44;98254.59;;;7.93;72.46
3260;BME280;22469;48.150;14.004;2022-12-05T16:51:22;98250.41;;;7.89;72.38
3260;BME280;22469;48.150;14.004;2022-12-05T16:53:58;98247.91;;;7.86;72.40
3260;BME280;22469;48.150;14.004;2022-12-05T16:56:30;98248.03;;;7.78;72.91
3260;BME280;22469;48.150;14.004;2022-12-05T16:59:05;98239.56;;;7.77;73.08
3260;BME280;22469;48.150;14.004;2022-12-05T17:01:37;98236.16;;;7.75;73.36
3260;BME280;22469;48.150;14.004;2022-12-05T17:04:04;98237.00;;;7.76;73.26
3260;BME280;22469;48.150;14.004;2022-12-05T17:06:35;98240.44;;;7.76;73.06
3260;BME280;22469;48.150;14.004;2022-12-05T17:09:02;98237.94;;;7.73;73.67
3260;BME280;22469;48.150;14.004;2022-12-05T17:11:31;98234.50;;;7.74;73.30
3260;BME280;22469;48.150;14.004;2022-12-05T17:14:01;98242.09;;;7.76;73.24
3260;BME280;22469;48.150;14.004;2022-12-05T17:16:28;98237.00;;;7.77;73.57
3260;BME280;22469;48.150;14.004;2022-12-05T17:18:56;98242.94;;;7.78;73.74
3260;BME280;22469;48.150;14.004;2022-12-05T17:21:25;98240.44;;;7.76;73.64
3260;BME280;22469;48.150;14.004;2022-12-05T17:23:56;98246.31;;;7.78;73.93
3260;BME280;22469;48.150;14.004;2022-12-05T17:26:24;98252.41;;;7.73;73.95
3260;BME280;22469;48.150;14.004;2022-12-05T17:28:51;98252.44;;;7.70;74.04
3260;BME280;22469;48.150;14.004;2022-12-05T17:31:21;98250.69;;;7.72;73.83
3260;BME280;22469;48.150;14.004;2022-12-05T17:33:51;98248.31;;;7.61;74.10
3260;BME280;22469;48.150;14.004;2022-12-05T17:36:20;98257.72;;;7.59;74.47
3260;BME280;22469;48.150;14.004;2022-12-05T17:38:48;98253.53;;;7.55;74.70
3260;BME280;22469;48.150;14.004;2022-12-05T17:41:18;98249.28;;;7.54;74.95
3260;BME280;22469;48.150;14.004;2022-12-05T17:43:47;98249.34;;;7.51;74.79
3260;BME280;22469;48.150;14.004;2022-12-05T17:46:17;98253.69;;;7.44;75.18
3260;BME280;22469;48.150;14.004;2022-12-05T17:48:48;98258.84;;;7.41;75.51
3260;BME280;22469;48.150;14.004;2022-12-05T17:51:17;98252.06;;;7.40;74.90
3260;BME280;22469;48.150;14.004;2022-12-05T17:53:46;98246.97;;;7.40;75.01
3260;BME280;22469;48.150;14.004;2022-12-05T17:56:13;98235.91;;;7.38;75.20
3260;BME280;22469;48.150;14.004;2022-12-05T17:58:41;98236.78;;;7.37;75.11
3260;BME280;22469;48.150;14.004;2022-12-05T18:01:13;98241.91;;;7.37;74.73
3260;BME280;22469;48.150;14.004;2022-12-05T18:03:43;98241.94;;;7.34;75.17
3260;BME280;22469;48.150;14.004;2022-12-05T18:06:10;98240.41;;;7.24;74.99
3260;BME280;22469;48.150;14.004;2022-12-05T18:08:38;98236.13;;;7.26;74.50
3260;BME280;22469;48.150;14.004;2022-12-05T18:11:16;98245.47;;;7.27;75.08
3260;BME280;22469;48.150;14.004;2022-12-05T18:13:44;98242.97;;;7.22;74.67
3260;BME280;22469;48.150;14.004;2022-12-05T18:16:24;98231.09;;;7.20;74.43
3260;BME280;22469;48.150;14.004;2022-12-05T18:19:05;98230.22;;;7.21;74.31
3260;BME280;22469;48.150;14.004;2022-12-05T18:21:34;98229.41;;;7.20;74.51
3260;BME280;22469;48.150;14.004;2022-12-05T18:24:01;98233.56;;;7.24;74.21
3260;BME280;22469;48.150;14.004;2022-12-05T18:26:28;98225.13;;;7.21;74.15
3260;BME280;22469;48.150;14.004;2022-12-05T18:28:55;98228.47;;;7.24;73.91
3260;BME280;22469;48.150;14.004;2022-12-05T18:31:24;98223.50;;;7.17;73.14
3260;BME280;22469;48.150;14.004;2022-12-05T18:34:01;98225.25;;;7.13;73.71
3260;BME280;22469;48.150;14.004;2022-12-05T18:36:28;98233.78;;;7.10;73.15
3260;BME280;22469;48.150;14.004;2022-12-05T18:38:56;98233.84;;;7.06;73.55
3260;BME280;22469;48.150;14.004;2022-12-05T18:41:24;98227.09;;;7.05;73.18
3260;BME280;22469;48.150;14.004;2022-12-05T18:43:54;98223.66;;;7.06;73.00
3260;BME280;22469;48.150;14.004;2022-12-05T18:46:21;98235.66;;;6.99;72.82
3260;BME280;22469;48.150;14.004;2022-12-05T18:48:49;98239.03;;;7.00;72.83
3260;BME280;22469;48.150;14.004;2022-12-05T18:51:22;98232.19;;;7.03;73.09
3260;BME280;22469;48.150;14.004;2022-12-05T18:53:51;98233.91;;;7.03;72.94
3260;BME280;22469;48.150;14.004;2022-12-05T18:56:31;98233.91;;;7.03;72.58
3260;BME280;22469;48.150;14.004;2022-12-05T18:59:04;98240.72;;;7.02;72.80
3260;BME280;22469;48.150;14.004;2022-12-05T19:01:39;98231.34;;;7.03;73.35
3260;BME280;22469;48.150;14.004;2022-12-05T19:04:09;98226.22;;;7.06;73.50
3260;BME280;22469;48.150;14.004;2022-12-05T19:06:45;98217.69;;;7.07;73.45
3260;BME280;22469;48.150;14.004;2022-12-05T19:09:20;98231.19;;;7.13;73.43
3260;BME280;22469;48.150;14.004;2022-12-05T19:11:58;98228.69;;;7.12;73.15
3260;BME280;22469;48.150;14.004;2022-12-05T19:14:40;98231.22;;;7.12;72.89
3260;BME280;22469;48.150;14.004;2022-12-05T19:17:07;98227.84;;;7.10;73.07
3260;BME280;22469;48.150;14.004;2022-12-05T19:19:34;98235.56;;;7.04;72.75
3260;BME280;22469;48.150;14.004;2022-12-05T19:22:01;98230.59;;;6.98;73.36
3260;BME280;22469;48.150;14.004;2022-12-05T19:24:29;98229.81;;;6.91;73.76
3260;BME280;22469;48.150;14.004;2022-12-05T19:26:56;98234.88;;;6.94;73.54
3260;BME280;22469;48.150;14.004;2022-12-05T19:29:24;98234.09;;;6.91;73.91
3260;BME280;22469;48.150;14.004;2022-12-05T19:31:51;98230.75;;;6.85;73.99
3260;BME280;22469;48.150;14.004;2022-12-05T19:34:18;98234.97;;;6.88;73.75
3260;BME280;22469;48.150;14.004;2022-12-05T19:36:46;98244.25;;;6.92;73.82
3260;BME280;22469;48.150;14.004;2022-12-05T19:39:19;98251.94;;;6.91;73.86
3260;BME280;22469;48.150;14.004;2022-12-05T19:41:49;98245.13;;;6.91;74.01
3260;BME280;22469;48.150;14.004;2022-12-05T19:44:16;98245.88;;;6.98;74.08
3260;BME280;22469;48.150;14.004;2022-12-05T19:46:43;98249.25;;;7.00;73.76
3260;BME280;22469;48.150;14.004;2022-12-05T19:49:12;98253.47;;;7.02;73.98
3260;BME280;22469;48.150;14.004;2022-12-05T19:51:41;98247.50;;;7.05;73.86
3260;BME280;22469;48.150;14.004;2022-12-05T19:54:11;98253.44;;;7.05;74.23
3260;BME280;22469;48.150;14.004;2022-12-05T19:56:39;98250.91;;;7.01;74.24
3260;BME280;22469;48.150;14.004;2022-12-05T19:59:07;98242.47;;;6.97;74.09
3260;BME280;22469;48.150;14.004;2022-12-05T20:01:37;98240.88;;;6.92;74.44
3260;BME280;22469;48.150;14.004;2022-12-05T20:04:10;98239.19;;;6.89;73.84
3260;BME280;22469;48.150;14.004;2022-12-05T20:06:42;98240.91;;;6.87;74.08
3260;BME280;22469;48.150;14.004;2022-12-05T20:09:15;98247.72;;;6.86;73.86
3260;BME280;22469;48.150;14.004;2022-12-05T20:11:45;98257.06;;;6.86;73.98
3260;BME280;22469;48.150;14.004;2022-12-05T20:14:22;98263.00;;;6.88;74.14
3260;BME280;22469;48.150;14.004;2022-12-05T20:16:51;98261.31;;;6.87;73.97
3260;BME280;22469;48.150;14.004;2022-12-05T20:19:19;98246.91;;;6.84;73.95
3260;BME280;22469;48.150;14.004;2022-12-05T20:21:47;98241.09;;;6.73;73.54
3260;BME280;22469;48.150;14.004;2022-12-05T20:24:14;98233.47;;;6.72;73.12
3260;BME280;22469;48.150;14.004;2022-12-05T20:26:43;98234.34;;;6.69;73.07
3260;BME280;22469;48.150;14.004;2022-12-05T20:29:10;98222.50;;;6.65;73.35
3260;BME280;22469;48.150;14.004;2022-12-05T20:31:40;98235.28;;;6.62;72.97
3260;BME280;22469;48.150;14.004;2022-12-05T20:34:10;98259.94;;;6.61;73.05
3260;BME280;22469;48.150;14.004;2022-12-05T20:36:41;98282.06;;;6.56;73.12
3260;BME280;22469;48.150;14.004;2022-12-05T20:39:15;98277.09;;;6.46;73.01
3260;BME280;22469;48.150;14.004;2022-12-05T20:41:44;98257.69;;;6.35;73.02
3260;BME280;22469;48.150;14.004;2022-12-05T20:44:15;98250.19;;;6.22;72.84
3260;BME280;22469;48.150;14.004;2022-12-05T20:46:42;98246.88;;;6.12;73.33
3260;BME280;22469;48.150;14.004;2022-12-05T20:49:11;98250.38;;;6.03;73.19
3260;BME280;22469;48.150;14.004;2022-12-05T20:51:43;98255.47;;;6.03;73.42
3260;BME280;22469;48.150;14.004;2022-12-05T20:54:13;98260.63;;;5.99;73.65
3260;BME280;22469;48.150;14.004;2022-12-05T20:56:42;98257.28;;;5.95;73.88
3260;BME280;22469;48.150;14.004;2022-12-05T20:59:11;98266.59;;;5.94;73.83
3260;BME280;22469;48.150;14.004;2022-12-05T21:01:38;98266.59;;;5.90;73.97
3260;BME280;22469;48.150;14.004;2022-12-05T21:04:09;98260.69;;;5.86;74.10
3260;BME280;22469;48.150;14.004;2022-12-05T21:06:39;98254.88;;;5.74;74.39
3260;BME280;22469;48.150;14.004;2022-12-05T21:09:17;98258.31;;;5.69;74.71
3260;BME280;22469;48.150;14.004;2022-12-05T21:11:58;98269.34;;;5.68;74.66
3260;BME280;22469;48.150;14.004;2022-12-05T21:14:28;98259.19;;;5.65;74.80
3260;BME280;22469;48.150;14.004;2022-12-05T21:16:55;98262.59;;;5.63;74.68
3260;BME280;22469;48.150;14.004;2022-12-05T21:19:23;98256.63;;;5.64;75.02
3260;BME280;22469;48.150;14.004;2022-12-05T21:21:52;98260.06;;;5.63;74.93
3260;BME280;22469;48.150;14.004;2022-12-05T21:24:20;98263.47;;;5.59;75.45
3260;BME280;22469;48.150;14.004;2022-12-05T21:26:48;98255.03;;;5.55;75.54
3260;BME280;22469;48.150;14.004;2022-12-05T21:29:16;98262.66;;;5.54;75.88
3260;BME280;22469;48.150;14.004;2022-12-05T21:31:43;98261.00;;;5.51;75.85
3260;BME280;22469;48.150;14.004;2022-12-05T21:34:16;98270.34;;;5.49;76.46
3260;BME280;22469;48.150;14.004;2022-12-05T21:36:48;98264.38;;;5.50;76.15
3260;BME280;22469;48.150;14.004;2022-12-05T21:39:15;98270.28;;;5.54;76.46
3260;BME280;22469;48.150;14.004;2022-12-05T21:41:42;98278.78;;;5.53;76.40
3260;BME280;22469;48.150;14.004;2022-12-05T21:44:09;98278.78;;;5.53;76.37
3260;BME280;22469;48.150;14.004;2022-12-05T21:46:36;98280.50;;;5.52;76.89
3260;BME280;22469;48.150;14.004;2022-12-05T21:49:03;98284.72;;;5.55;76.86
3260;BME280;22469;48.150;14.004;2022-12-05T21:51:30;98282.22;;;5.49;77.31
3260;BME280;22469;48.150;14.004;2022-12-05T21:53:57;98286.56;;;5.34;77.91
3260;BME280;22469;48.150;14.004;2022-12-05T21:56:24;98292.53;;;5.27;78.17
3260;BME280;22469;48.150;14.004;2022-12-05T21:58:52;98290.09;;;5.10;78.91
3260;BME280;22469;48.150;14.004;2022-12-05T22:01:24;98292.59;;;5.15;78.94
3260;BME280;22469;48.150;14.004;2022-12-05T22:03:55;98290.94;;;5.08;79.17
3260;BME280;22469;48.150;14.004;2022-12-05T22:06:27;98296.84;;;5.11;78.53
3260;BME280;22469;48.150;14.004;2022-12-05T22:09:00;98299.44;;;4.99;79.37
3260;BME280;22469;48.150;14.004;2022-12-05T22:11:28;98296.06;;;4.98;79.26
3260;BME280;22469;48.150;14.004;2022-12-05T22:13:55;98285.00;;;5.09;78.73
3260;BME280;22469;48.150;14.004;2022-12-05T22:16:22;98288.47;;;4.97;79.20
3260;BME280;22469;48.150;14.004;2022-12-05T22:18:58;98286.81;;;4.93;79.30
3260;BME280;22469;48.150;14.004;2022-12-05T22:21:25;98282.53;;;4.96;79.13
3260;BME280;22469;48.150;14.004;2022-12-05T22:23:52;98283.31;;;5.08;78.94
3260;BME280;22469;48.150;14.004;2022-12-05T22:26:22;98283.31;;;5.08;78.84
3260;BME280;22469;48.150;14.004;2022-12-05T22:28:51;98286.78;;;4.96;79.62
3260;BME280;22469;48.150;14.004;2022-12-05T22:31:21;98283.44;;;4.83;79.97
3260;BME280;22469;48.150;14.004;2022-12-05T22:33:49;98280.78;;;5.05;79.15
3260;BME280;22469;48.150;14.004;2022-12-05T22:36:18;98275.78;;;4.88;79.75
3260;BME280;22469;48.150;14.004;2022-12-05T22:38:46;98270.66;;;5.03;78.82
3260;BME280;22469;48.150;14.004;2022-12-05T22:41:16;98268.88;;;5.14;78.54
3260;BME280;22469;48.150;14.004;2022-12-05T22:43:47;98268.03;;;5.17;78.25
3260;BME280;22469;48.150;14.004;2022-12-05T22:46:17;98268.00;;;5.18;78.30
3260;BME280;22469;48.150;14.004;2022-12-05T22:48:47;98261.22;;;5.19;78.23
3260;BME280;22469;48.150;14.004;2022-12-05T22:51:17;98265.47;;;5.17;78.73
3260;BME280;22469;48.150;14.004;2022-12-05T22:53:45;98264.66;;;5.09;78.77
3260;BME280;22469;48.150;14.004;2022-12-05T22:56:15;98257.88;;;5.11;78.94
3260;BME280;22469;48.150;14.004;2022-12-05T22:58:44;98258.72;;;5.14;78.94
3260;BME280;22469;48.150;14.004;2022-12-05T23:01:15;98261.25;;;5.11;79.40
3260;BME280;22469;48.150;14.004;2022-12-05T23:03:48;98262.91;;;5.21;79.07
3260;BME280;22469;48.150;14.004;2022-12-05T23:06:19;98262.91;;;5.18;78.96
3260;BME280;22469;48.150;14.004;2022-12-05T23:08:46;98256.06;;;5.28;78.50
3260;BME280;22469;48.150;14.004;2022-12-05T23:11:16;98257.72;;;5.35;78.18
3260;BME280;22469;48.150;14.004;2022-12-05T23:13:45;98265.41;;;5.26;78.33
3260;BME280;22469;48.150;14.004;2022-12-05T23:16:19;98260.47;;;5.06;79.46
3260;BME280;22469;48.150;14.004;2022-12-05T23:18:49;98260.38;;;5.23;78.67
3260;BME280;22469;48.150;14.004;2022-12-05T23:24:00;98251.84;;;5.27;78.60
3260;BME280;22469;48.150;14.004;2022-12-05T23:26:32;98243.41;;;5.23;78.62
3260;BME280;22469;48.150;14.004;2022-12-05T23:29:00;98255.47;;;4.92;80.41
3260;BME280;22469;48.150;14.004;2022-12-05T23:31:55;98244.25;;;5.19;79.44
3260;BME280;22469;48.150;14.004;2022-12-05T23:34:23;98234.09;;;5.19;79.58
3260;BME280;22469;48.150;14.004;2022-12-05T23:36:50;98230.72;;;5.17;79.74
3260;BME280;22469;48.150;14.004;2022-12-05T23:39:17;98236.66;;;5.18;80.05
3260;BME280;22469;48.150;14.004;2022-12-05T23:41:44;98232.34;;;5.28;80.15
3260;BME280;22469;48.150;14.004;2022-12-05T23:44:18;98239.03;;;5.39;79.95
3260;BME280;22469;48.150;14.004;2022-12-05T23:46:46;98233.94;;;5.41;79.96
3260;BME280;22469;48.150;14.004;2022-12-05T23:49:13;98230.44;;;5.53;79.50
3260;BME280;22469;48.150;14.004;2022-12-05T23:51:40;98238.09;;;5.50;79.83
3260;BME280;22469;48.150;14.004;2022-12-05T23:54:09;98232.28;;;5.37;80.35
3260;BME280;22469;48.150;14.004;2022-12-05T23:56:37;98238.28;;;5.28;80.21
3260;BME280;22469;48.150;14.004;2022-12-05T23:59:05;98235.75;;;5.27;81.18
